createdAt,value
2019-01-29T00:02:13.145Z,98692.20
2019-01-29T00:04:43.330Z,98685.56
2019-01-29T00:07:13.435Z,98690.55
2019-01-29T00:09:43.559Z,98696.38
2019-01-29T00:12:13.681Z,98691.66
2019-01-29T00:14:43.795Z,98690.75
2019-01-29T00:17:13.944Z,98688.44
2019-01-29T00:19:44.093Z,98697.80
2019-01-29T00:22:14.198Z,98698.06
2019-01-29T00:24:44.290Z,98696.53
2019-01-29T00:27:14.451Z,98694.62
2019-01-29T00:29:44.556Z,98694.05
2019-01-29T00:32:14.704Z,98696.91
2019-01-29T00:34:44.816Z,98691.98
2019-01-29T00:37:14.934Z,98691.98
2019-01-29T00:39:45.049Z,98692.30
2019-01-29T00:42:15.211Z,98689.01
2019-01-29T00:44:45.307Z,98689.96
2019-01-29T00:47:15.442Z,98692.61
2019-01-29T00:49:45.562Z,98689.86
2019-01-29T00:52:15.682Z,98688.42
2019-01-29T00:54:45.787Z,98686.42
2019-01-29T00:57:15.950Z,98687.16
2019-01-29T00:59:46.063Z,98690.55
2019-01-29T01:02:16.208Z,98687.59
2019-01-29T01:04:47.335Z,98682.87
2019-01-29T01:07:17.461Z,98690.51
2019-01-29T01:09:56.844Z,98685.16
2019-01-29T01:12:21.504Z,98679.76
2019-01-29T01:14:51.620Z,98686.95
2019-01-29T01:17:21.785Z,98680.98
2019-01-29T01:19:52.298Z,98685.41
2019-01-29T01:22:22.428Z,98683.13
2019-01-29T01:24:52.565Z,98686.73
2019-01-29T01:27:22.682Z,98690.50
2019-01-29T01:29:52.825Z,98686.78
2019-01-29T01:32:22.984Z,98688.22
2019-01-29T01:34:53.211Z,98691.98
2019-01-29T01:37:23.363Z,98693.45
2019-01-29T01:39:53.488Z,98688.80
2019-01-29T01:42:23.627Z,98695.20
2019-01-29T01:44:53.725Z,98693.98
2019-01-29T01:47:23.860Z,98696.75
2019-01-29T01:49:53.977Z,98697.75
2019-01-29T01:52:24.122Z,98697.65
2019-01-29T01:54:54.832Z,98697.86
2019-01-29T01:57:24.956Z,98697.80
2019-01-29T01:59:55.060Z,98699.98
2019-01-29T02:02:25.206Z,98706.59
2019-01-29T02:04:55.376Z,98707.55
2019-01-29T02:07:25.472Z,98704.05
2019-01-29T02:09:55.586Z,98711.52
2019-01-29T02:12:25.721Z,98709.83
2019-01-29T02:14:55.830Z,98706.81
2019-01-29T02:17:25.985Z,98711.52
2019-01-29T02:19:56.199Z,98711.44
2019-01-29T02:22:26.300Z,98710.59
2019-01-29T02:24:56.414Z,98707.84
2019-01-29T02:27:26.560Z,98711.54
2019-01-29T02:29:56.672Z,98709.64
2019-01-29T02:32:26.808Z,98704.34
2019-01-29T02:34:56.964Z,98706.03
2019-01-29T02:37:27.278Z,98712.97
2019-01-29T02:39:57.397Z,98708.62
2019-01-29T02:42:27.526Z,98713.23
2019-01-29T02:44:57.642Z,98712.28
2019-01-29T02:47:27.777Z,98714.88
2019-01-29T02:49:57.889Z,98715.83
2019-01-29T02:52:28.017Z,98720.48
2019-01-29T02:54:58.140Z,98718.42
2019-01-29T02:57:28.348Z,98724.94
2019-01-29T02:59:58.552Z,98724.08
2019-01-29T03:02:28.711Z,98731.08
2019-01-29T03:04:58.829Z,98730.13
2019-01-29T03:07:28.979Z,98730.29
2019-01-29T03:09:59.099Z,98738.71
2019-01-29T03:12:29.230Z,98737.66
2019-01-29T03:14:59.361Z,98742.89
2019-01-29T03:17:30.925Z,98734.42
2019-01-29T03:20:01.042Z,98739.71
2019-01-29T03:22:31.204Z,98739.12
2019-01-29T03:25:01.742Z,98735.11
2019-01-29T03:27:31.894Z,98736.59
2019-01-29T03:30:02.033Z,98740.19
2019-01-29T03:32:33.237Z,98740.62
2019-01-29T03:35:03.419Z,98742.27
2019-01-29T03:37:33.732Z,98744.59
2019-01-29T03:40:04.668Z,98742.27
2019-01-29T03:42:34.832Z,98739.19
2019-01-29T03:45:06.384Z,98745.66
2019-01-29T03:47:36.516Z,98746.29
2019-01-29T03:50:08.739Z,98736.54
2019-01-29T03:52:38.920Z,98739.61
2019-01-29T03:55:09.922Z,98741.25
2019-01-29T03:57:40.032Z,98748.62
2019-01-29T04:00:21.255Z,98750.42
2019-01-29T04:02:51.443Z,98751.37
2019-01-29T04:05:21.892Z,98757.88
2019-01-29T04:07:52.201Z,98760.16
2019-01-29T04:10:22.302Z,98763.55
2019-01-29T04:12:52.406Z,98763.17
2019-01-29T04:15:23.201Z,98763.92
2019-01-29T04:17:57.387Z,98763.17
2019-01-29T04:20:27.813Z,98771.02
2019-01-29T04:22:57.908Z,98765.72
2019-01-29T04:25:28.023Z,98774.89
2019-01-29T04:27:58.165Z,98772.23
2019-01-29T04:30:28.274Z,98774.99
2019-01-29T04:32:58.390Z,98771.50
2019-01-29T04:35:28.504Z,98771.70
2019-01-29T04:37:58.614Z,98779.45
2019-01-29T04:40:28.855Z,98782.14
2019-01-29T04:42:58.971Z,98787.91
2019-01-29T04:45:29.114Z,98786.27
2019-01-29T04:47:59.260Z,98792.32
2019-01-29T04:50:29.482Z,98806.92
2019-01-29T04:52:59.697Z,98801.14
2019-01-29T04:55:29.875Z,98804.45
2019-01-29T04:58:00.004Z,98805.39
2019-01-29T05:00:30.147Z,98820.98
2019-01-29T05:03:00.277Z,98811.83
2019-01-29T05:05:30.390Z,98817.87
2019-01-29T05:08:00.536Z,98824.68
2019-01-29T05:10:30.772Z,98832.80
2019-01-29T05:13:00.880Z,98828.45
2019-01-29T05:15:31.025Z,98837.42
2019-01-29T05:18:01.155Z,98835.31
2019-01-29T05:20:31.269Z,98836.92
2019-01-29T05:23:01.389Z,98834.00
2019-01-29T05:25:31.508Z,98839.56
2019-01-29T05:28:01.618Z,98838.52
2019-01-29T05:30:31.770Z,98842.05
2019-01-29T05:33:01.919Z,98837.96
2019-01-29T05:35:32.036Z,98830.50
2019-01-29T05:38:04.165Z,98837.20
2019-01-29T05:40:33.941Z,98850.92
2019-01-29T05:43:04.174Z,98843.72
2019-01-29T05:45:34.289Z,98852.22
2019-01-29T05:48:04.411Z,98849.94
2019-01-29T05:50:34.525Z,98850.64
2019-01-29T05:53:04.666Z,98853.47
2019-01-29T05:55:34.940Z,98862.60
2019-01-29T05:58:05.060Z,98865.73
2019-01-29T06:00:37.802Z,98866.48
2019-01-29T06:03:08.692Z,98878.33
2019-01-29T06:05:38.821Z,98877.39
2019-01-29T06:08:08.929Z,98878.23
2019-01-29T06:10:39.389Z,98885.22
2019-01-29T06:13:09.730Z,98884.28
2019-01-29T06:15:41.653Z,98898.16
2019-01-29T06:18:11.845Z,98896.75
2019-01-29T06:20:41.963Z,98904.11
2019-01-29T06:23:12.084Z,98906.19
2019-01-29T06:25:42.360Z,98908.55
2019-01-29T06:28:12.540Z,98912.60
2019-01-29T06:30:44.075Z,98909.58
2019-01-29T06:33:15.223Z,98910.23
2019-01-29T06:35:45.340Z,98920.52
2019-01-29T06:38:15.447Z,98914.28
2019-01-29T06:40:45.561Z,98919.95
2019-01-29T06:43:15.763Z,98923.92
2019-01-29T06:45:45.858Z,98928.34
2019-01-29T06:48:16.624Z,98926.89
2019-01-29T06:50:46.787Z,98927.83
2019-01-29T06:53:16.943Z,98925.72
2019-01-29T06:55:48.114Z,98933.56
2019-01-29T06:58:18.223Z,98937.73
2019-01-29T07:00:48.656Z,98936.29
2019-01-29T07:03:18.760Z,98941.34
2019-01-29T07:05:49.041Z,98936.24
2019-01-29T07:08:19.604Z,98943.69
2019-01-29T07:10:49.762Z,98942.93
2019-01-29T07:13:19.881Z,98950.50
2019-01-29T07:16:03.371Z,98958.13
2019-01-29T07:18:43.252Z,98959.36
2019-01-29T07:21:13.342Z,98965.08
2019-01-29T07:23:43.498Z,98975.77
2019-01-29T07:26:13.621Z,98972.69
2019-01-29T07:28:43.752Z,98979.87
2019-01-29T07:31:13.943Z,98978.44
2019-01-29T07:33:44.056Z,98987.91
2019-01-29T07:36:14.218Z,98987.53
2019-01-29T07:38:44.353Z,98990.17
2019-01-29T07:41:14.466Z,98990.31
2019-01-29T07:43:44.653Z,98989.89
2019-01-29T07:46:14.786Z,98995.81
2019-01-29T07:48:44.904Z,99002.34
2019-01-29T07:51:15.038Z,99004.89
2019-01-29T07:53:45.177Z,98999.73
2019-01-29T07:56:15.305Z,99011.57
2019-01-29T07:58:45.435Z,99009.48
2019-01-29T08:01:15.570Z,99013.48
2019-01-29T08:03:45.704Z,99005.18
2019-01-29T08:06:15.897Z,99012.38
2019-01-29T08:08:46.070Z,99012.98
2019-01-29T08:11:16.178Z,99008.38
2019-01-29T08:13:46.302Z,99019.28
2019-01-29T08:16:16.533Z,99020.43
2019-01-29T08:18:46.671Z,99020.64
2019-01-29T08:21:16.843Z,99022.52
2019-01-29T08:23:46.968Z,99021.20
2019-01-29T08:26:17.179Z,99031.55
2019-01-29T08:28:48.029Z,99027.20
2019-01-29T08:31:18.167Z,99024.77
2019-01-29T08:33:48.335Z,99030.31
2019-01-29T08:36:18.496Z,99032.14
2019-01-29T08:38:49.353Z,99036.31
2019-01-29T08:41:19.457Z,98943.59
2019-01-29T08:43:49.587Z,99045.08
2019-01-29T08:46:19.724Z,99045.94
2019-01-29T08:48:49.949Z,99045.56
2019-01-29T08:51:20.145Z,99050.16
2019-01-29T08:53:50.379Z,99043.13
2019-01-29T08:56:20.534Z,99038.47
2019-01-29T08:58:51.682Z,99053.04
2019-01-29T09:01:21.826Z,99051.76
2019-01-29T09:03:52.193Z,99062.41
2019-01-29T09:06:22.348Z,99059.42
2019-01-29T09:08:52.531Z,99062.48
2019-01-29T09:11:22.745Z,99071.42
2019-01-29T09:13:52.867Z,99070.59
2019-01-29T09:16:23.003Z,99068.80
2019-01-29T09:18:53.182Z,99072.76
2019-01-29T09:21:23.372Z,99081.80
2019-01-29T09:23:53.535Z,99085.63
2019-01-29T09:26:24.000Z,99078.78
2019-01-29T09:28:54.222Z,99081.03
2019-01-29T09:31:24.347Z,99077.33
2019-01-29T09:33:54.482Z,99081.33
2019-01-29T09:36:25.294Z,99077.58
2019-01-29T09:38:55.470Z,99083.12
2019-01-29T09:41:25.574Z,99079.50
2019-01-29T09:43:55.758Z,99080.27
2019-01-29T09:46:25.938Z,99078.70
2019-01-29T09:48:56.990Z,99083.12
2019-01-29T09:51:27.044Z,99094.32
2019-01-29T09:53:57.177Z,99102.37
2019-01-29T09:56:27.479Z,99102.67
2019-01-29T09:58:57.794Z,99104.47
2019-01-29T10:01:27.933Z,99100.46
2019-01-29T10:03:58.088Z,99100.33
2019-01-29T10:06:28.927Z,99101.39
2019-01-29T10:08:59.134Z,99104.30
2019-01-29T10:11:29.339Z,99106.55
2019-01-29T10:13:59.586Z,99107.23
2019-01-29T10:16:30.065Z,99105.14
2019-01-29T10:19:00.830Z,99106.21
2019-01-29T10:21:30.985Z,99109.66
2019-01-29T10:24:01.242Z,99108.20
2019-01-29T10:26:31.447Z,99107.58
2019-01-29T10:29:03.196Z,99106.33
2019-01-29T10:31:33.471Z,99108.59
2019-01-29T10:34:03.687Z,99107.39
2019-01-29T10:36:33.921Z,99107.02
2019-01-29T10:39:06.555Z,99106.64
2019-01-29T10:41:36.700Z,99105.39
2019-01-29T10:44:07.026Z,99102.31
2019-01-29T10:46:37.282Z,99106.91
2019-01-29T10:49:07.961Z,99118.07
2019-01-29T10:51:38.959Z,99118.07
2019-01-29T10:54:09.218Z,99133.86
2019-01-29T10:56:40.472Z,99129.30
2019-01-29T10:59:10.559Z,99133.69
2019-01-29T11:01:40.763Z,99135.13
2019-01-29T11:04:10.933Z,99132.36
2019-01-29T11:06:41.116Z,99139.09
2019-01-29T11:09:13.723Z,99138.80
2019-01-29T11:11:43.919Z,99137.69
2019-01-29T11:14:14.058Z,99143.62
2019-01-29T11:16:44.746Z,99150.27
2019-01-29T11:19:14.864Z,99144.02
2019-01-29T11:21:44.984Z,99146.36
2019-01-29T11:24:15.086Z,99142.89
2019-01-29T11:26:45.188Z,99145.12
2019-01-29T11:29:15.320Z,99142.64
2019-01-29T11:31:45.432Z,99146.66
2019-01-29T11:34:15.533Z,99146.05
2019-01-29T11:36:45.681Z,99135.83
2019-01-29T11:39:15.773Z,99144.48
2019-01-29T11:41:45.896Z,99149.84
2019-01-29T11:44:16.044Z,99150.53
2019-01-29T11:46:46.294Z,99150.56
2019-01-29T11:49:16.436Z,99155.77
2019-01-29T11:51:46.682Z,99157.05
2019-01-29T11:54:16.804Z,99156.63
2019-01-29T11:56:47.086Z,99158.62
2019-01-29T11:59:17.227Z,99161.14
2019-01-29T12:01:47.363Z,99154.91
2019-01-29T12:04:19.171Z,99155.59
2019-01-29T12:06:50.493Z,99157.69
2019-01-29T12:09:20.618Z,99159.73
2019-01-29T12:11:51.917Z,99157.17
2019-01-29T12:14:22.024Z,99158.45
2019-01-29T12:16:52.156Z,99167.10
2019-01-29T12:19:22.322Z,99166.00
2019-01-29T12:21:52.463Z,99158.02
2019-01-29T12:24:22.537Z,99160.78
2019-01-29T12:26:52.631Z,99164.45
2019-01-29T12:29:22.754Z,99165.72
2019-01-29T12:31:53.518Z,99165.93
2019-01-29T12:34:23.692Z,99166.48
2019-01-29T12:36:53.835Z,99167.17
2019-01-29T12:39:23.953Z,99167.80
2019-01-29T12:41:54.078Z,99167.91
2019-01-29T12:44:24.223Z,99173.10
2019-01-29T12:46:54.368Z,99169.67
2019-01-29T12:49:24.597Z,99166.83
2019-01-29T12:52:04.232Z,99172.25
2019-01-29T12:54:34.357Z,99170.30
2019-01-29T12:57:04.790Z,99177.14
2019-01-29T12:59:34.911Z,99173.45
2019-01-29T13:02:05.199Z,99176.05
2019-01-29T13:04:35.311Z,99183.36
2019-01-29T13:07:05.496Z,99188.72
2019-01-29T13:09:35.585Z,99188.89
2019-01-29T13:12:06.426Z,99188.09
2019-01-29T13:14:36.647Z,99196.89
2019-01-29T13:17:07.766Z,99193.00
2019-01-29T13:19:38.267Z,99202.94
2019-01-29T13:22:08.450Z,99203.53
2019-01-29T13:24:38.688Z,99207.91
2019-01-29T13:27:08.883Z,99201.30
2019-01-29T13:29:38.984Z,99201.70
2019-01-29T13:32:09.122Z,99209.70
2019-01-29T13:34:39.328Z,99220.58
2019-01-29T13:37:09.534Z,99212.27
2019-01-29T13:39:39.638Z,99214.03
2019-01-29T13:42:09.847Z,99217.08
2019-01-29T13:44:40.017Z,99216.45
2019-01-29T13:47:10.191Z,99220.41
2019-01-29T13:49:40.317Z,99223.22
2019-01-29T13:52:10.457Z,99228.16
2019-01-29T13:54:40.616Z,99225.91
2019-01-29T13:57:10.759Z,99229.17
2019-01-29T13:59:40.886Z,99235.14
2019-01-29T14:02:11.161Z,99238.64
2019-01-29T14:04:41.383Z,99231.96
2019-01-29T14:07:11.939Z,99238.56
2019-01-29T14:09:42.029Z,99246.63
2019-01-29T14:12:12.117Z,99248.96
2019-01-29T14:14:42.221Z,99252.84
2019-01-29T14:17:12.312Z,99263.56
2019-01-29T14:19:42.399Z,99268.52
2019-01-29T14:22:12.620Z,99265.11
2019-01-29T14:24:43.560Z,99267.36
2019-01-29T14:27:14.778Z,99267.91
2019-01-29T14:29:44.898Z,99268.84
2019-01-29T14:32:16.136Z,99269.25
2019-01-29T14:34:46.281Z,99278.16
2019-01-29T14:37:16.379Z,99273.18
2019-01-29T14:40:19.292Z,99276.98
2019-01-29T14:42:50.529Z,99285.70
2019-01-29T14:45:25.826Z,99288.40
2019-01-29T14:47:55.905Z,99290.16
2019-01-29T14:50:29.267Z,99288.61
2019-01-29T14:52:59.414Z,99290.07
2019-01-29T14:55:29.540Z,99292.02
2019-01-29T14:58:00.156Z,99297.86
2019-01-29T15:00:31.232Z,99292.87
2019-01-29T15:03:01.488Z,99308.26
2019-01-29T15:05:31.603Z,99301.18
2019-01-29T15:08:01.961Z,99300.48
2019-01-29T15:10:32.256Z,99308.92
2019-01-29T15:13:02.638Z,99310.41
2019-01-29T15:15:35.147Z,99307.06
2019-01-29T15:18:14.352Z,99310.94
2019-01-29T15:20:44.481Z,99307.69
2019-01-29T15:23:14.699Z,99313.33
2019-01-29T15:25:44.824Z,99313.94
2019-01-29T15:28:16.000Z,99316.71
2019-01-29T15:30:46.097Z,99315.82
2019-01-29T15:33:16.561Z,99320.63
2019-01-29T15:35:46.910Z,99319.23
2019-01-29T15:38:17.208Z,99325.83
2019-01-29T15:40:47.596Z,99322.59
2019-01-29T15:43:17.887Z,99334.23
2019-01-29T15:45:48.012Z,99331.81
2019-01-29T15:48:18.241Z,99336.33
2019-01-29T15:50:48.387Z,99334.22
2019-01-29T15:53:18.657Z,99339.49
2019-01-29T15:55:48.778Z,99340.02
2019-01-29T15:58:18.990Z,99343.16
2019-01-29T16:00:49.316Z,99346.33
2019-01-29T16:03:19.806Z,99349.64
2019-01-29T16:05:50.009Z,99354.03
2019-01-29T16:08:20.141Z,99350.01
2019-01-29T16:10:50.256Z,99352.39
2019-01-29T16:13:20.373Z,99350.08
2019-01-29T16:15:50.561Z,99352.73
2019-01-29T16:18:20.681Z,99360.30
2019-01-29T16:20:50.762Z,99357.52
2019-01-29T16:23:20.886Z,99356.20
2019-01-29T16:25:50.999Z,99355.18
2019-01-29T16:28:21.111Z,99357.42
2019-01-29T16:30:51.210Z,99367.89
2019-01-29T16:33:21.322Z,99362.42
2019-01-29T16:35:51.452Z,99356.88
2019-01-29T16:38:21.666Z,99364.34
2019-01-29T16:41:00.124Z,99365.75
2019-01-29T16:43:23.613Z,99364.75
2019-01-29T16:45:53.716Z,99369.75
2019-01-29T16:48:23.812Z,99376.89
2019-01-29T16:50:53.900Z,99379.34
2019-01-29T16:53:25.217Z,99371.38
2019-01-29T16:55:55.300Z,99383.82
2019-01-29T16:58:25.496Z,99386.78
2019-01-29T17:00:55.612Z,99385.19
2019-01-29T17:03:25.727Z,99385.98
2019-01-29T17:05:55.871Z,99383.09
2019-01-29T17:08:26.035Z,99387.62
2019-01-29T17:10:56.176Z,99389.01
2019-01-29T17:13:26.239Z,99385.33
2019-01-29T17:15:56.441Z,99392.13
2019-01-29T17:18:26.545Z,99384.14
2019-01-29T17:20:56.646Z,99387.45
2019-01-29T17:23:26.759Z,99394.70
2019-01-29T17:25:56.868Z,99392.86
2019-01-29T17:28:26.979Z,99398.45
2019-01-29T17:30:57.080Z,99400.69
2019-01-29T17:33:27.274Z,99407.19
2019-01-29T17:35:58.369Z,99413.77
2019-01-29T17:38:28.472Z,99409.19
2019-01-29T17:40:58.587Z,99408.77
2019-01-29T17:43:28.670Z,99399.81
2019-01-29T17:45:58.796Z,99406.06
2019-01-29T17:48:29.027Z,99292.01
2019-01-29T17:50:59.147Z,99403.50
2019-01-29T17:53:29.508Z,99411.73
2019-01-29T17:55:59.747Z,99412.00
2019-01-29T17:58:29.861Z,99409.30
2019-01-29T18:01:01.940Z,99416.20
2019-01-29T18:03:32.059Z,99412.28
2019-01-29T18:06:02.185Z,99415.91
2019-01-29T18:08:32.426Z,99415.38
2019-01-29T18:11:02.541Z,99418.91
2019-01-29T18:13:32.730Z,99412.02
2019-01-29T18:16:02.856Z,99417.28
2019-01-29T18:18:32.957Z,99413.39
2019-01-29T18:21:03.096Z,99418.66
2019-01-29T18:23:33.205Z,99421.95
2019-01-29T18:26:04.313Z,99433.58
2019-01-29T18:28:34.519Z,99427.73
2019-01-29T18:31:04.794Z,99430.42
2019-01-29T18:33:34.949Z,99435.16
2019-01-29T18:36:05.379Z,99434.85
2019-01-29T18:38:35.513Z,99439.32
2019-01-29T18:41:05.807Z,99442.02
2019-01-29T18:43:36.095Z,99439.14
2019-01-29T18:46:08.126Z,99446.89
2019-01-29T18:48:38.246Z,99445.06
2019-01-29T18:51:08.380Z,99446.05
2019-01-29T18:53:38.492Z,99437.27
2019-01-29T18:56:08.633Z,99442.43
2019-01-29T18:58:38.921Z,99441.51
2019-01-29T19:01:09.063Z,99446.65
2019-01-29T19:03:39.161Z,99453.47
2019-01-29T19:06:10.060Z,99455.30
2019-01-29T19:08:40.567Z,99458.86
2019-01-29T19:11:13.082Z,99458.70
2019-01-29T19:13:43.223Z,99463.28
2019-01-29T19:16:15.689Z,99460.59
2019-01-29T19:18:45.159Z,99462.22
2019-01-29T19:21:15.434Z,99456.56
2019-01-29T19:23:45.549Z,99460.11
2019-01-29T19:26:15.736Z,99456.66
2019-01-29T19:28:45.866Z,99461.42
2019-01-29T19:31:15.983Z,99456.56
2019-01-29T19:33:46.246Z,99464.24
2019-01-29T19:36:16.368Z,99472.02
2019-01-29T19:38:46.470Z,99473.27
2019-01-29T19:41:16.692Z,99478.23
2019-01-29T19:43:46.802Z,99481.78
2019-01-29T19:46:16.925Z,99489.27
2019-01-29T19:48:47.090Z,99496.10
2019-01-29T19:51:17.201Z,99503.33
2019-01-29T19:53:47.312Z,99503.73
2019-01-29T19:56:17.678Z,99504.64
2019-01-29T19:58:48.087Z,99502.47
2019-01-29T20:01:18.273Z,99503.05
2019-01-29T20:03:48.506Z,99505.09
2019-01-29T20:06:18.681Z,99503.38
2019-01-29T20:08:48.899Z,99503.63
2019-01-29T20:11:19.265Z,99506.16
2019-01-29T20:13:49.428Z,99506.03
2019-01-29T20:16:19.565Z,99515.13
2019-01-29T20:18:49.990Z,99510.60
2019-01-29T20:21:20.154Z,99515.34
2019-01-29T20:23:50.513Z,99511.80
2019-01-29T20:26:20.836Z,99511.80
2019-01-29T20:28:51.408Z,99516.20
2019-01-29T20:31:21.742Z,99510.98
2019-01-29T20:33:51.914Z,99516.82
2019-01-29T20:36:23.038Z,99517.70
2019-01-29T20:38:53.487Z,99517.86
2019-01-29T20:41:23.735Z,99524.25
2019-01-29T20:43:53.877Z,99525.84
2019-01-29T20:46:24.302Z,99536.04
2019-01-29T20:48:54.570Z,99538.06
2019-01-29T20:51:24.690Z,99536.09
2019-01-29T20:53:54.991Z,99536.69
2019-01-29T20:56:25.227Z,99539.84
2019-01-29T20:58:55.414Z,99541.09
2019-01-29T21:01:25.672Z,99537.15
2019-01-29T21:03:55.800Z,99537.42
2019-01-29T21:06:25.909Z,99540.73
2019-01-29T21:08:56.491Z,99556.80
2019-01-29T21:11:26.951Z,99552.34
2019-01-29T21:13:57.198Z,99556.41
2019-01-29T21:16:27.325Z,99560.36
2019-01-29T21:18:58.239Z,99562.47
2019-01-29T21:21:28.493Z,99557.56
2019-01-29T21:23:58.635Z,99561.52
2019-01-29T21:26:28.849Z,99560.36
2019-01-29T21:29:03.192Z,99570.12
2019-01-29T21:31:30.809Z,99573.40
2019-01-29T21:34:00.937Z,99574.20
2019-01-29T21:36:31.059Z,99571.92
2019-01-29T21:39:01.171Z,99572.44
2019-01-29T21:41:32.895Z,99579.13
2019-01-29T21:44:03.017Z,99576.83
2019-01-29T21:46:33.156Z,99580.34
2019-01-29T21:49:03.272Z,99587.09
2019-01-29T21:51:33.370Z,99589.42
2019-01-29T21:54:03.472Z,99593.42
2019-01-29T21:56:33.588Z,99592.94
2019-01-29T21:59:12.937Z,99599.60
2019-01-29T22:01:35.493Z,99596.11
2019-01-29T22:04:05.603Z,99599.55
2019-01-29T22:06:35.697Z,99604.87
2019-01-29T22:09:09.424Z,99598.52
2019-01-29T22:11:39.518Z,99598.58
2019-01-29T22:14:10.709Z,99602.13
2019-01-29T22:16:41.296Z,99600.58
2019-01-29T22:19:11.407Z,99600.64
2019-01-29T22:21:41.509Z,99602.64
2019-01-29T22:24:11.631Z,99602.75
2019-01-29T22:26:41.747Z,99605.13
2019-01-29T22:29:11.855Z,99607.86
2019-01-29T22:31:41.947Z,99606.03
2019-01-29T22:34:12.088Z,99609.86
2019-01-29T22:36:42.199Z,99608.31
2019-01-29T22:39:12.371Z,99608.02
2019-01-29T22:41:42.468Z,99609.78
2019-01-29T22:44:12.565Z,99614.02
2019-01-29T22:46:42.690Z,99614.70
2019-01-29T22:49:12.870Z,99612.94
2019-01-29T22:51:42.978Z,99619.40
2019-01-29T22:54:13.100Z,99622.43
2019-01-29T22:56:43.200Z,99627.80
2019-01-29T22:59:13.315Z,99625.13
2019-01-29T23:01:43.785Z,99625.75
2019-01-29T23:04:29.420Z,99625.58
2019-01-29T23:07:14.615Z,99631.75
2019-01-29T23:09:44.749Z,99631.24
2019-01-29T23:12:14.879Z,99628.95
2019-01-29T23:14:45.044Z,99631.81
2019-01-29T23:17:15.142Z,99636.44
2019-01-29T23:19:45.279Z,99640.34
2019-01-29T23:22:15.395Z,99637.77
2019-01-29T23:24:45.511Z,99639.99
2019-01-29T23:27:15.612Z,99640.34
2019-01-29T23:29:45.714Z,99645.52
2019-01-29T23:32:17.003Z,99647.52
2019-01-29T23:34:47.103Z,99657.87
2019-01-29T23:37:17.230Z,99653.18
2019-01-29T23:39:47.425Z,99660.34
2019-01-29T23:42:17.584Z,99652.90
2019-01-29T23:44:47.686Z,99660.16
2019-01-29T23:47:17.814Z,99667.43
2019-01-29T23:49:47.934Z,99662.16
2019-01-29T23:52:18.011Z,99670.52
2019-01-29T23:54:48.120Z,99668.64
2019-01-29T23:57:18.230Z,99675.11
2019-01-29T23:59:53.623Z,99666.58
